Time;durP1;ratioP1;P1;durP2;ratioP2;P2;SDS_P1;SDS_P2;PMS_P1;PMS_P2;Temp;Humidity;BMP_temperature;BMP_pressure;BME280_temperature;BME280_humidity;BME280_pressure;Samples;Min_cycle;Max_cycle;Signal;HPM_P1;HPM_P2
2022/10/05 00:00:45;;;;;;;3.55;2.75;;;;;;;8.52;76.88;98391.94;4917026;29;20434;-57
2022/10/05 00:03:10;;;;;;;3.97;3.05;;;;;;;8.51;76.34;98393.00;4917022;29;20143;-57
2022/10/05 00:05:36;;;;;;;3.75;2.65;;;;;;;8.43;76.53;98391.59;4917320;29;20091;-57
2022/10/05 00:08:14;;;;;;;4.10;2.80;;;;;;;8.38;77.47;98394.13;4900023;29;20494;-56
2022/10/05 00:10:40;;;;;;;4.80;2.55;;;;;;;8.39;76.88;98393.16;4900067;29;20082;-55
2022/10/05 00:13:25;;;;;;;4.47;2.72;;;;;;;8.42;77.46;98392.66;4916921;29;20046;-57
2022/10/05 00:15:57;;;;;;;4.90;2.63;;;;;;;8.46;76.66;98388.47;4917216;29;20065;-56
2022/10/05 00:18:22;;;;;;;3.53;2.72;;;;;;;8.47;76.58;98386.59;4900238;29;20055;-58
2022/10/05 00:20:48;;;;;;;3.53;2.75;;;;;;;8.47;77.62;98387.44;4917119;29;20514;-56
2022/10/05 00:23:24;;;;;;;4.22;2.78;;;;;;;8.51;77.21;98385.88;4900084;29;20055;-57
2022/10/05 00:25:50;;;;;;;2.95;2.28;;;;;;;8.50;77.00;98389.56;4917085;29;20413;-57
2022/10/05 00:28:25;;;;;;;4.93;2.65;;;;;;;8.49;76.82;98387.16;4916864;29;20056;-58
2022/10/05 00:30:54;;;;;;;5.85;2.70;;;;;;;8.43;77.52;98383.66;4884218;29;20048;-57
2022/10/05 00:33:20;;;;;;;4.35;2.80;;;;;;;8.39;77.55;98393.16;4916724;29;20044;-57
2022/10/05 00:35:45;;;;;;;4.65;3.03;;;;;;;8.40;77.62;98392.09;4899745;29;20075;-57
2022/10/05 00:38:11;;;;;;;3.75;2.55;;;;;;;8.35;78.01;98390.19;4899531;29;20575;-58
2022/10/05 00:41:01;;;;;;;3.90;2.50;;;;;;;8.38;77.55;98386.22;4915293;29;20044;-56
2022/10/05 00:44:04;;;;;;;4.50;2.78;;;;;;;8.37;77.52;98387.28;4915230;29;20514;-57
2022/10/05 00:46:39;;;;;;;3.55;2.33;;;;;;;8.41;77.50;98394.50;4916411;29;20123;-57
2022/10/05 00:49:15;;;;;;;4.05;2.80;;;;;;;8.36;77.88;98397.03;4899243;29;20126;-57
2022/10/05 00:51:45;;;;;;;2.83;2.33;;;;;;;8.39;78.02;98386.00;4914993;29;20418;-58
2022/10/05 00:54:40;;;;;;;3.60;2.50;;;;;;;8.48;77.57;98391.66;4899226;29;20055;-58
2022/10/05 00:57:43;;;;;;;3.33;2.17;;;;;;;8.51;76.61;98377.94;4899133;29;20542;-58
2022/10/05 01:00:13;;;;;;;3.60;2.60;;;;;;;8.53;77.36;98390.91;4899323;29;20056;-57
2022/10/05 01:02:39;;;;;;;4.10;2.63;;;;;;;8.58;76.82;98390.97;4899498;29;20044;-57
2022/10/05 01:05:44;;;;;;;2.83;2.53;;;;;;;8.55;77.56;98394.09;4916257;29;20048;-54
2022/10/05 01:08:25;;;;;;;3.92;3.03;;;;;;;8.56;77.72;98385.94;4898550;29;20103;-57
2022/10/05 01:11:03;;;;;;;4.40;2.72;;;;;;;8.59;77.38;98395.22;4914830;29;20427;-57
2022/10/05 01:13:40;;;;;;;4.22;3.08;;;;;;;8.67;77.28;98399.25;4883363;29;20647;-56
2022/10/05 01:16:37;;;;;;;3.70;2.75;;;;;;;8.66;76.93;98403.72;4898868;29;20557;-55
2022/10/05 01:19:25;;;;;;;3.15;2.70;;;;;;;8.70;77.71;98404.03;4883287;29;20108;-58
2022/10/05 01:22:11;;;;;;;4.40;2.83;;;;;;;8.74;77.94;98403.28;4915688;29;20047;-56
2022/10/05 01:24:46;;;;;;;4.05;2.88;;;;;;;8.74;77.79;98397.22;4915900;29;20067;-57
2022/10/05 01:27:27;;;;;;;3.20;2.60;;;;;;;8.75;77.50;98401.44;4914609;29;20147;-57
2022/10/05 01:30:05;;;;;;;3.22;2.90;;;;;;;8.73;77.55;98400.88;4898833;29;20391;-57
2022/10/05 01:32:47;;;;;;;3.35;2.72;;;;;;;8.75;78.19;98396.16;4898531;29;20076;-57
2022/10/05 01:35:32;;;;;;;5.53;3.28;;;;;;;8.78;78.17;98398.28;4914337;29;20047;-57
2022/10/05 01:38:17;;;;;;;3.28;2.97;;;;;;;8.77;78.40;98392.22;4898750;29;20052;-58
2022/10/05 01:41:01;;;;;;;4.38;2.90;;;;;;;8.79;79.19;98400.69;4898202;29;20458;-56
2022/10/05 01:43:37;;;;;;;4.22;3.25;;;;;;;8.78;78.73;98396.44;4913378;29;20043;-55
2022/10/05 01:46:28;;;;;;;5.65;3.28;;;;;;;8.75;78.68;98401.44;4882885;29;20111;-55
2022/10/05 01:49:15;;;;;;;4.53;3.20;;;;;;;8.76;78.60;98400.38;4914102;29;20052;-58
2022/10/05 01:51:47;;;;;;;4.47;3.35;;;;;;;8.69;78.37;98397.94;4883004;29;20060;-57
2022/10/05 01:54:34;;;;;;;5.47;3.50;;;;;;;8.66;79.45;98393.16;4882682;29;20510;-58
2022/10/05 01:57:06;;;;;;;5.78;3.30;;;;;;;8.69;78.86;98397.16;4910902;29;20060;-56
2022/10/05 01:59:38;;;;;;;4.32;3.17;;;;;;;8.71;79.93;98403.78;4895087;29;20045;-57
2022/10/05 02:02:08;;;;;;;5.78;3.00;;;;;;;8.73;79.08;98401.69;4895208;29;20059;-59
2022/10/05 02:04:35;;;;;;;5.88;3.53;;;;;;;8.74;79.31;98398.00;4894910;29;20396;-58
2022/10/05 02:07:07;;;;;;;4.47;3.40;;;;;;;8.72;79.93;98400.09;4879509;29;20058;-56
2022/10/05 02:09:41;;;;;;;5.22;3.05;;;;;;;8.74;79.39;98403.28;4895112;29;20040;-55
2022/10/05 02:12:13;;;;;;;7.40;3.20;;;;;;;8.67;79.65;98405.31;4895299;29;20427;-57
2022/10/05 02:14:42;;;;;;;4.63;3.20;;;;;;;8.63;81.98;98401.59;4894945;29;20140;-57
2022/10/05 02:17:42;;;;;;;7.93;3.05;;;;;;;8.52;80.75;98411.22;4895197;29;20131;-57
2022/10/05 02:20:11;;;;;;;5.45;3.80;;;;;;;8.44;81.45;98409.03;4864516;29;20537;-57
2022/10/05 02:22:38;;;;;;;4.70;3.38;;;;;;;8.31;80.95;98407.53;4894794;29;20052;-59
2022/10/05 02:25:11;;;;;;;4.72;3.40;;;;;;;8.36;81.10;98407.59;4910625;29;20508;-57
2022/10/05 02:28:02;;;;;;;4.25;3.45;;;;;;;8.33;80.87;98416.03;4897675;29;20059;-57
2022/10/05 02:30:30;;;;;;;5.43;3.35;;;;;;;8.31;81.79;98410.19;4914421;29;20044;-56
2022/10/05 02:33:09;;;;;;;4.32;3.50;;;;;;;8.28;81.77;98417.78;4898689;29;20048;-57
2022/10/05 02:35:35;;;;;;;4.38;3.33;;;;;;;8.34;81.86;98408.91;4867598;29;20044;-56
2022/10/05 02:38:31;;;;;;;4.25;3.30;;;;;;;8.42;81.71;98421.69;4898587;29;20052;-57
2022/10/05 02:41:09;;;;;;;4.47;3.50;;;;;;;8.41;81.65;98402.41;4913044;29;20055;-57
2022/10/05 02:44:07;;;;;;;4.50;3.45;;;;;;;8.53;81.73;98414.66;4914178;29;20056;-56
2022/10/05 02:46:50;;;;;;;4.88;3.10;;;;;;;8.57;80.97;98418.44;4898187;29;20059;-57
2022/10/05 02:49:36;;;;;;;3.65;3.03;;;;;;;8.55;80.85;98416.03;4898438;29;20139;-56
2022/10/05 02:52:04;;;;;;;4.60;3.33;;;;;;;8.53;80.93;98422.59;4914358;29;20056;-56
2022/10/05 02:54:53;;;;;;;5.32;3.22;;;;;;;8.45;81.27;98415.13;4898213;29;20107;-58
2022/10/05 02:57:34;;;;;;;4.45;3.53;;;;;;;8.28;81.15;98418.59;4913958;29;20065;-56
2022/10/05 03:00:09;;;;;;;3.95;3.40;;;;;;;8.26;81.21;98419.88;4882788;29;20050;-56
2022/10/05 03:03:01;;;;;;;4.18;3.60;;;;;;;8.19;81.83;98415.59;4882828;29;20052;-58
2022/10/05 03:05:32;;;;;;;3.30;2.75;;;;;;;8.16;81.32;98416.06;4882888;29;20485;-56
2022/10/05 03:08:12;;;;;;;5.38;3.40;;;;;;;8.19;82.29;98420.06;4882921;29;20080;-56
2022/10/05 03:10:52;;;;;;;6.13;3.20;;;;;;;8.26;81.68;98422.53;4882487;29;20558;-56
2022/10/05 03:13:44;;;;;;;7.00;3.17;;;;;;;8.27;81.09;98418.84;4913723;29;20084;-56
2022/10/05 03:16:31;;;;;;;3.80;2.85;;;;;;;8.21;81.10;98418.00;4863401;29;20052;-57
2022/10/05 03:19:08;;;;;;;3.45;3.10;;;;;;;8.25;82.05;98426.22;4897924;29;20093;-57
2022/10/05 03:21:55;;;;;;;4.15;3.17;;;;;;;8.15;81.22;98427.69;4913700;29;20087;-56
2022/10/05 03:24:38;;;;;;;3.70;2.92;;;;;;;8.13;81.05;98431.59;4897557;29;20053;-57
2022/10/05 03:27:23;;;;;;;4.30;3.10;;;;;;;7.96;81.02;98431.66;4897833;29;20083;-57
2022/10/05 03:30:12;;;;;;;3.70;2.90;;;;;;;8.04;82.84;98433.06;4897813;29;20041;-58
2022/10/05 03:32:50;;;;;;;3.13;2.70;;;;;;;7.99;81.89;98433.78;4898138;29;20045;-58
2022/10/05 03:35:27;;;;;;;3.45;2.97;;;;;;;7.89;82.17;98434.47;4913649;29;20464;-58
2022/10/05 03:38:13;;;;;;;3.97;3.20;;;;;;;7.90;82.04;98435.25;4882109;29;20505;-58
2022/10/05 03:40:49;;;;;;;5.68;3.25;;;;;;;8.00;81.89;98445.16;4897542;29;20044;-58
2022/10/05 03:43:54;;;;;;;6.72;4.07;;;;;;;8.02;82.37;98437.78;4913550;29;20057;-58
2022/10/05 03:46:44;;;;;;;7.00;3.95;;;;;;;8.12;82.33;98436.09;4896867;29;20426;-58
2022/10/05 03:49:39;;;;;;;3.60;2.53;;;;;;;8.10;80.85;98442.66;4913062;29;20045;-58
2022/10/05 03:52:14;;;;;;;3.75;2.90;;;;;;;8.04;81.98;98436.50;4863859;29;20050;-58
2022/10/05 03:54:44;;;;;;;3.75;2.83;;;;;;;8.08;81.25;98442.09;4897564;29;20036;-59
2022/10/05 03:57:17;;;;;;;;;;;;;;;8.04;81.62;98438.34;4898002;29;20159;-58
2022/10/05 04:00:04;;;;;;;3.85;2.90;;;;;;;8.07;82.03;98443.16;4913039;29;19930;-59
2022/10/05 04:02:48;;;;;;;5.70;2.83;;;;;;;8.14;82.43;98438.47;4898585;29;20044;-59
2022/10/05 04:05:24;;;;;;;5.35;2.75;;;;;;;8.09;80.79;98447.13;4897236;29;20043;-58
2022/10/05 04:07:56;;;;;;;4.15;2.80;;;;;;;8.08;81.96;98448.16;4881605;29;20135;-55
2022/10/05 04:10:32;;;;;;;3.88;3.13;;;;;;;8.05;81.04;98442.59;4898580;29;20471;-58
2022/10/05 04:13:14;;;;;;;3.17;2.80;;;;;;;8.00;81.43;98445.16;4878740;29;20045;-56
2022/10/05 04:15:45;;;;;;;3.83;2.67;;;;;;;8.00;81.96;98445.16;4896820;29;20132;-59
2022/10/05 04:18:30;;;;;;;3.55;2.60;;;;;;;7.89;81.50;98439.75;4897108;29;20096;-59
2022/10/05 04:21:06;;;;;;;4.45;2.67;;;;;;;7.99;81.93;98447.00;4897022;29;20045;-57
2022/10/05 04:23:38;;;;;;;5.95;2.80;;;;;;;8.08;81.72;98448.16;4896845;29;20052;-59
2022/10/05 04:26:15;;;;;;;4.13;2.67;;;;;;;8.06;80.95;98450.28;4912628;29;20064;-58
2022/10/05 04:28:44;;;;;;;3.55;2.42;;;;;;;8.01;81.12;98444.13;4881138;29;20069;-59
2022/10/05 04:31:19;;;;;;;6.03;2.72;;;;;;;8.00;80.85;98443.31;4912564;29;20555;-59
2022/10/05 04:33:48;;;;;;;3.92;2.80;;;;;;;8.08;82.05;98452.66;4896732;29;20060;-61
2022/10/05 04:36:21;;;;;;;5.35;2.90;;;;;;;8.04;80.52;98460.25;4881193;29;20055;-59
2022/10/05 04:38:50;;;;;;;4.35;2.60;;;;;;;8.07;81.59;98451.06;4912261;29;20051;-59
2022/10/05 04:41:53;;;;;;;2.90;2.60;;;;;;;8.21;82.33;98454.94;4897525;29;20052;-59
2022/10/05 04:44:22;;;;;;;3.75;3.03;;;;;;;8.29;80.82;98451.88;4897632;29;20491;-60
2022/10/05 04:47:49;;;;;;;3.63;2.55;;;;;;;8.33;82.13;98460.91;4896271;29;20049;-58
2022/10/05 04:50:53;;;;;;;5.55;3.25;;;;;;;8.37;81.29;98462.00;4876751;29;20085;-58
2022/10/05 04:53:20;;;;;;;5.10;2.60;;;;;;;8.43;81.17;98465.53;4894823;29;20059;-57
2022/10/05 04:55:53;;;;;;;3.53;2.70;;;;;;;8.48;80.46;98459.53;4880339;29;20135;-60
2022/10/05 04:58:29;;;;;;;5.00;2.75;;;;;;;8.50;80.19;98465.34;4880153;29;20526;-57
2022/10/05 05:01:32;;;;;;;3.15;2.60;;;;;;;8.55;80.40;98473.34;4895563;29;20175;-57
2022/10/05 05:04:14;;;;;;;3.70;2.60;;;;;;;8.54;79.62;98472.53;4910963;29;20100;-59
2022/10/05 05:06:44;;;;;;;4.22;2.65;;;;;;;8.55;79.00;98462.78;4875752;29;20081;-57
2022/10/05 05:09:38;;;;;;;3.72;2.88;;;;;;;8.58;80.18;98476.28;4878607;29;20105;-59
2022/10/05 05:12:28;;;;;;;2.88;2.35;;;;;;;8.58;78.59;98475.50;4878368;29;20044;-60
2022/10/05 05:15:25;;;;;;;3.47;2.53;;;;;;;8.54;79.42;98471.75;4896695;29;20048;-57
2022/10/05 05:18:12;;;;;;;5.55;3.63;;;;;;;8.60;79.34;98468.13;4895785;29;20052;-59
2022/10/05 05:20:47;;;;;;;3.60;2.88;;;;;;;8.57;78.52;98464.13;4896927;29;20040;-57
2022/10/05 05:23:22;;;;;;;3.65;2.83;;;;;;;8.64;79.75;98464.72;4911712;29;20044;-59
2022/10/05 05:26:07;;;;;;;3.75;2.83;;;;;;;8.75;80.14;98463.00;4911491;29;20055;-59
2022/10/05 05:28:50;;;;;;;3.13;2.30;;;;;;;8.76;78.29;98461.16;4895348;29;20055;-60
2022/10/05 05:31:42;;;;;;;2.75;2.50;;;;;;;8.63;79.36;98457.84;4895417;29;20072;-59
2022/10/05 05:34:42;;;;;;;4.50;2.90;;;;;;;8.68;80.00;98459.75;4877693;29;20118;-57
2022/10/05 05:37:27;;;;;;;6.40;2.80;;;;;;;8.69;80.28;98468.50;4895642;29;20060;-58
2022/10/05 05:40:15;;;;;;;3.88;3.17;;;;;;;8.68;80.47;98467.69;4895604;29;20423;-58
2022/10/05 05:43:00;;;;;;;4.00;2.60;;;;;;;8.63;79.17;98471.06;4895538;29;20127;-59
2022/10/05 05:46:03;;;;;;;3.00;2.28;;;;;;;8.60;79.98;98482.13;4897015;29;20533;-59
2022/10/05 05:48:45;;;;;;;3.28;2.58;;;;;;;8.69;80.05;98479.84;4891014;29;20143;-58
2022/10/05 05:51:16;;;;;;;2.55;2.10;;;;;;;8.71;79.30;98480.41;4895240;29;20053;-58
2022/10/05 05:53:45;;;;;;;2.95;2.55;;;;;;;8.69;79.44;98482.50;4895321;29;20571;-59
2022/10/05 05:56:14;;;;;;;3.95;2.30;;;;;;;8.71;79.12;98482.25;4882321;29;20147;-60
2022/10/05 05:58:53;;;;;;;3.00;2.13;;;;;;;8.69;78.52;98479.84;4883227;29;20075;-57
2022/10/05 06:01:20;;;;;;;2.70;2.05;;;;;;;8.70;78.00;98481.44;4880119;29;20044;-58
2022/10/05 06:03:54;;;;;;;2.25;1.77;;;;;;;8.71;77.37;98490.97;4897240;29;20387;-59
2022/10/05 06:06:24;;;;;;;3.78;1.70;;;;;;;8.70;76.45;98489.34;4897307;29;20106;-58
2022/10/05 06:08:55;;;;;;;2.78;1.70;;;;;;;8.71;77.78;98487.53;4895640;29;20044;-58
2022/10/05 06:11:51;;;;;;;2.08;1.65;;;;;;;8.56;77.63;98491.59;4914158;29;20064;-57
2022/10/05 06:14:21;;;;;;;2.72;1.38;;;;;;;8.69;76.74;98498.34;4895568;29;20537;-55
2022/10/05 06:16:53;;;;;;;2.08;1.10;;;;;;;8.70;75.03;98491.22;4912007;29;20628;-55
2022/10/05 06:19:22;;;;;;;1.30;1.20;;;;;;;8.74;75.27;98493.13;4865629;29;20246;-55
2022/10/05 06:21:54;;;;;;;;;;;;;;;8.74;74.18;98500.25;4866389;29;20075;-58
2022/10/05 06:24:41;;;;;;;2.33;2.13;;;;;;;8.80;74.06;98494.78;4896726;29;19930;-57
2022/10/05 06:27:13;;;;;;;1.70;0.93;;;;;;;8.86;75.83;98507.00;4912420;29;20515;-57
2022/10/05 06:30:07;;;;;;;1.25;1.10;;;;;;;8.98;73.44;98506.06;4913362;29;20119;-57
2022/10/05 06:32:44;;;;;;;1.42;0.90;;;;;;;8.91;73.21;98516.03;4897564;29;20052;-58
2022/10/05 06:35:16;;;;;;;4.05;1.30;;;;;;;8.83;73.74;98515.41;4913163;29;20119;-58
2022/10/05 06:37:55;;;;;;;2.80;1.40;;;;;;;8.96;73.73;98516.88;4913474;29;20056;-59
2022/10/05 06:40:56;;;;;;;2.03;1.33;;;;;;;9.03;73.88;98530.72;4896630;29;20502;-60
2022/10/05 06:43:28;;;;;;;1.40;1.30;;;;;;;9.13;72.54;98522.09;4896747;29;20055;-59
2022/10/05 06:46:26;;;;;;;2.38;1.50;;;;;;;9.18;73.44;98526.63;4913319;29;20051;-58
2022/10/05 06:49:20;;;;;;;2.40;1.15;;;;;;;9.30;73.50;98533.38;4897423;29;20052;-57
2022/10/05 06:52:45;;;;;;;1.73;1.20;;;;;;;9.52;73.69;98529.84;4899382;29;20052;-58
2022/10/05 06:55:35;;;;;;;2.17;1.30;;;;;;;9.66;73.16;98532.91;4894813;29;20052;-59
2022/10/05 06:58:19;;;;;;;4.85;1.30;;;;;;;9.66;72.27;98549.56;4895346;29;20071;-57
2022/10/05 07:00:54;;;;;;;1.70;1.38;;;;;;;9.85;72.76;98546.53;4912129;29;20426;-59
2022/10/05 07:03:51;;;;;;;1.75;1.33;;;;;;;9.90;73.50;98539.44;4897031;29;20413;-56
2022/10/05 07:06:37;;;;;;;1.33;1.17;;;;;;;10.10;71.66;98548.59;4879239;29;20044;-58
2022/10/05 07:09:24;;;;;;;2.45;1.27;;;;;;;10.15;71.29;98548.63;4912355;29;20044;-58
2022/10/05 07:11:57;;;;;;;1.30;1.20;;;;;;;10.29;71.51;98549.78;4880474;29;20119;-59
2022/10/05 07:14:51;;;;;;;2.00;1.80;;;;;;;10.28;71.10;98555.34;4899716;29;20047;-59
2022/10/05 07:17:29;;;;;;;2.08;1.45;;;;;;;10.42;70.27;98559.94;4901020;29;20048;-58
2022/10/05 07:20:12;;;;;;;1.40;1.30;;;;;;;10.38;69.85;98558.03;4916391;29;20059;-57
2022/10/05 07:22:52;;;;;;;1.23;1.17;;;;;;;10.43;69.53;98563.38;4900729;29;20055;-58
2022/10/05 07:25:22;;;;;;;2.72;1.30;;;;;;;10.53;69.33;98570.59;4915914;29;20056;-59
2022/10/05 07:28:14;;;;;;;2.50;1.20;;;;;;;10.59;68.74;98572.19;4899963;29;20139;-58
2022/10/05 07:31:06;;;;;;;1.42;1.33;;;;;;;10.65;68.75;98576.50;4897881;29;20048;-56
2022/10/05 07:33:41;;;;;;;2.30;1.50;;;;;;;10.67;68.50;98571.72;4899297;29;20143;-59
2022/10/05 07:39:10;;;;;;;4.05;1.40;;;;;;;10.64;68.51;98583.63;4903325;29;20643;-57
2022/10/05 07:41:46;;;;;;;4.70;2.97;;;;;;;10.74;67.57;98580.25;4900966;29;20047;-58
2022/10/05 07:44:51;;;;;;;1.92;1.50;;;;;;;10.76;67.47;98577.34;4916269;29;20044;-56
2022/10/05 07:47:34;;;;;;;2.90;1.60;;;;;;;10.73;68.32;98585.81;4899582;29;20048;-59
2022/10/05 07:50:28;;;;;;;1.23;1.10;;;;;;;10.91;67.04;98588.81;4899989;29;20086;-58
2022/10/05 07:53:03;;;;;;;2.30;1.30;;;;;;;11.01;66.93;98592.56;4914800;29;20039;-60
2022/10/05 07:55:39;;;;;;;2.00;1.40;;;;;;;11.11;66.32;98600.56;4883434;29;20410;-57
2022/10/05 07:58:05;;;;;;;1.38;1.27;;;;;;;11.22;66.87;98601.41;4916012;29;20518;-58
2022/10/05 08:01:03;;;;;;;2.72;1.48;;;;;;;11.30;65.94;98603.53;4898988;29;20103;-59
2022/10/05 08:03:48;;;;;;;1.90;1.58;;;;;;;11.36;66.00;98605.16;4881522;29;20056;-59
2022/10/05 08:06:29;;;;;;;1.92;1.50;;;;;;;11.16;65.62;98602.44;4884347;29;20078;-59
2022/10/05 08:09:03;;;;;;;2.00;1.40;;;;;;;11.30;65.49;98614.16;4900134;29;20071;-58
2022/10/05 08:11:36;;;;;;;2.97;1.40;;;;;;;11.40;65.81;98610.72;4897506;29;20429;-59
2022/10/05 08:14:15;;;;;;;3.05;1.60;;;;;;;11.54;66.37;98615.28;4898889;29;20054;-60
2022/10/05 08:16:42;;;;;;;1.63;1.42;;;;;;;11.73;65.98;98607.59;4898707;29;20177;-60
2022/10/05 08:19:25;;;;;;;1.40;1.30;;;;;;;11.82;64.27;98615.84;4915449;29;20091;-61
2022/10/05 08:22:06;;;;;;;1.50;1.40;;;;;;;11.73;64.00;98612.91;4882376;29;20494;-60
2022/10/05 08:24:57;;;;;;;1.77;1.48;;;;;;;11.65;64.38;98615.28;4896206;29;20561;-60
2022/10/05 08:27:25;;;;;;;;;;;;;;;11.39;62.91;98620.56;4899443;29;20422;-60
2022/10/05 08:30:09;;;;;;;1.83;1.70;;;;;;;11.20;64.18;98622.88;4916035;29;19931;-66
2022/10/05 08:32:49;;;;;;;1.73;1.60;;;;;;;11.04;65.48;98621.22;4899419;29;20111;-58
2022/10/05 08:35:24;;;;;;;1.60;1.40;;;;;;;10.79;67.17;98630.63;4899668;29;20048;-55
2022/10/05 08:37:50;;;;;;;2.40;1.50;;;;;;;10.54;68.36;98633.94;4899227;29;20062;-58
2022/10/05 08:40:34;;;;;;;1.30;1.20;;;;;;;10.34;68.76;98628.50;4899372;29;20513;-59
2022/10/05 08:43:13;;;;;;;2.33;1.20;;;;;;;10.12;68.79;98629.38;4899508;29;20048;-59
2022/10/05 08:45:39;;;;;;;1.90;1.38;;;;;;;10.05;69.71;98633.28;4915058;29;20056;-58
2022/10/05 08:48:29;;;;;;;1.90;1.60;;;;;;;10.10;71.63;98638.63;4916343;29;20051;-59
2022/10/05 08:51:28;;;;;;;2.70;1.50;;;;;;;10.21;71.79;98635.81;4899224;29;20063;-59
2022/10/05 08:54:15;;;;;;;1.00;1.00;;;;;;;10.32;70.51;98639.34;4864432;29;20049;-59
2022/10/05 08:57:08;;;;;;;3.55;1.85;;;;;;;10.54;70.22;98641.09;4915928;29;20573;-59
2022/10/05 08:59:55;;;;;;;1.23;1.20;;;;;;;10.74;69.14;98645.72;4915831;29;20115;-59
2022/10/05 09:02:27;;;;;;;2.13;1.55;;;;;;;10.92;69.86;98642.66;4915907;29;20131;-60
2022/10/05 09:05:30;;;;;;;2.47;2.22;;;;;;;11.22;69.11;98646.50;4898993;29;20090;-58
2022/10/05 09:08:07;;;;;;;2.28;1.80;;;;;;;11.24;67.30;98645.19;4898820;29;20075;-59
2022/10/05 09:10:58;;;;;;;1.58;1.38;;;;;;;10.98;66.54;98652.22;4915620;29;20048;-59
2022/10/05 09:13:52;;;;;;;1.58;1.10;;;;;;;10.72;65.79;98643.31;4883154;29;20118;-59
2022/10/05 09:16:42;;;;;;;1.17;1.10;;;;;;;10.61;67.07;98654.91;4915401;29;20054;-59
2022/10/05 09:19:35;;;;;;;3.50;1.15;;;;;;;10.57;67.66;98654.63;4898920;29;20040;-61
2022/10/05 09:22:29;;;;;;;1.35;0.90;;;;;;;10.62;68.34;98659.97;4915852;29;20086;-60
2022/10/05 09:25:16;;;;;;;1.02;0.93;;;;;;;10.72;67.03;98653.94;4898694;29;20462;-59
2022/10/05 09:27:47;;;;;;;1.40;1.10;;;;;;;10.71;67.65;98668.25;4883224;29;20055;-58
2022/10/05 09:30:21;;;;;;;1.27;1.10;;;;;;;10.71;67.98;98665.59;4915252;29;20391;-59
2022/10/05 09:33:24;;;;;;;2.08;1.27;;;;;;;10.66;68.85;98669.00;4882894;29;20528;-60
2022/10/05 09:36:32;;;;;;;4.53;1.30;;;;;;;10.62;68.57;98672.44;4915185;29;20498;-60
2022/10/05 09:39:01;;;;;;;1.48;1.30;;;;;;;10.66;69.40;98678.81;4856893;29;20049;-58
2022/10/05 09:41:57;;;;;;;1.23;1.13;;;;;;;10.75;69.47;98677.28;4904196;29;20044;-59
2022/10/05 09:44:48;;;;;;;2.05;1.20;;;;;;;10.77;67.84;98685.78;4915350;29;20059;-60
2022/10/05 09:47:13;;;;;;;;;;;;;;;10.84;69.57;98677.59;4915634;29;20059;-59
2022/10/05 09:50:07;;;;;;;1.00;1.00;;;;;;;10.92;67.77;98679.78;4915258;29;19927;-60
2022/10/05 09:52:48;;;;;;;1.40;1.30;;;;;;;10.96;68.46;98683.50;4915313;29;20052;-60
2022/10/05 09:55:38;;;;;;;2.67;1.27;;;;;;;11.09;68.62;98690.22;4915220;29;20056;-60
2022/10/05 09:58:27;;;;;;;1.30;1.20;;;;;;;11.22;67.98;98694.25;4914904;29;20060;-60
2022/10/05 10:01:05;;;;;;;1.38;1.27;;;;;;;11.30;67.50;98689.25;4915253;29;20055;-59
2022/10/05 10:03:56;;;;;;;1.30;1.20;;;;;;;11.42;66.81;98696.19;4915108;29;20058;-61
2022/10/05 10:06:42;;;;;;;2.80;1.17;;;;;;;11.46;67.22;98702.56;4879171;29;20048;-60
2022/10/05 10:09:52;;;;;;;1.55;1.25;;;;;;;11.46;66.40;98700.69;4896606;29;20051;-60
2022/10/05 10:12:36;;;;;;;;;;;;;;;11.41;66.23;98702.53;4900180;29;20115;-60
2022/10/05 10:15:31;;;;;;;1.27;1.05;;;;;;;11.41;65.83;98698.03;4914803;29;19931;-59
2022/10/05 10:18:27;;;;;;;1.25;1.15;;;;;;;11.49;66.51;98694.88;4885809;29;20056;-61
2022/10/05 10:21:02;;;;;;;1.73;1.17;;;;;;;11.52;66.43;98704.19;4897824;29;20055;-60
2022/10/05 10:23:33;;;;;;;1.45;1.30;;;;;;;11.51;65.18;98697.28;4898101;29;20052;-60
2022/10/05 10:26:25;;;;;;;1.13;1.02;;;;;;;11.44;65.64;98696.72;4897584;29;20068;-59
2022/10/05 10:29:31;;;;;;;2.85;1.23;;;;;;;11.35;65.60;98714.97;4865934;29;20048;-60
2022/10/05 10:32:05;;;;;;;2.00;1.58;;;;;;;11.12;64.90;98711.72;4902157;29;20071;-60
2022/10/05 10:34:39;;;;;;;2.35;1.70;;;;;;;11.07;66.43;98714.31;4914101;29;20048;-59
2022/10/05 10:37:33;;;;;;;2.20;1.50;;;;;;;11.02;65.76;98708.19;4896866;29;20051;-60
2022/10/05 10:40:25;;;;;;;1.27;1.17;;;;;;;11.01;65.33;98714.56;4913675;29;20051;-61
2022/10/05 10:42:58;;;;;;;0.90;0.90;;;;;;;11.05;66.05;98720.94;4896321;29;20054;-61
2022/10/05 10:45:53;;;;;;;1.00;1.00;;;;;;;11.23;64.86;98715.19;4877976;29;20060;-61
2022/10/05 10:48:28;;;;;;;3.17;2.55;;;;;;;11.41;63.79;98721.91;4913151;29;20164;-60
2022/10/05 10:51:19;;;;;;;2.40;1.50;;;;;;;11.44;63.69;98715.28;4916232;29;20048;-62
2022/10/05 10:54:04;;;;;;;1.20;1.10;;;;;;;11.36;63.65;98717.38;4884082;29;20059;-60
2022/10/05 10:56:35;;;;;;;2.10;1.60;;;;;;;11.39;63.11;98710.78;4896294;29;20068;-59
2022/10/05 10:59:22;;;;;;;3.13;1.27;;;;;;;11.45;63.24;98711.59;4898626;29;20494;-60
2022/10/05 11:02:13;;;;;;;0.93;0.93;;;;;;;11.34;64.00;98719.50;4897039;29;20054;-64
2022/10/05 11:04:52;;;;;;;1.52;1.27;;;;;;;11.43;63.34;98716.34;4895672;29;20052;-61
2022/10/05 11:07:39;;;;;;;1.30;1.13;;;;;;;11.36;63.29;98719.25;4897298;29;20048;-58
2022/10/05 11:10:24;;;;;;;1.30;1.15;;;;;;;11.27;63.24;98734.06;4897113;29;20045;-60
2022/10/05 11:13:02;;;;;;;2.42;1.92;;;;;;;11.21;64.40;98738.53;4897778;29;20044;-59
2022/10/05 11:15:55;;;;;;;2.25;1.60;;;;;;;11.15;66.08;98734.28;4896724;29;20744;-59
2022/10/05 11:18:23;;;;;;;2.42;1.55;;;;;;;11.13;66.49;98745.13;4897037;29;20049;-59
2022/10/05 11:21:35;;;;;;;1.60;1.40;;;;;;;11.17;66.53;98755.22;4897485;29;20052;-60
2022/10/05 11:24:25;;;;;;;1.42;1.33;;;;;;;11.27;66.11;98760.59;4897599;29;20056;-59
2022/10/05 11:27:02;;;;;;;1.83;1.25;;;;;;;11.41;64.94;98771.53;4878939;29;20064;-60
2022/10/05 11:29:43;;;;;;;2.28;1.70;;;;;;;11.46;63.99;98761.75;4898417;29;20052;-60
2022/10/05 11:32:30;;;;;;;2.22;1.23;;;;;;;11.52;63.41;98778.50;4897305;29;20045;-59
2022/10/05 11:35:33;;;;;;;1.60;1.10;;;;;;;11.53;63.21;98770.28;4913142;29;20468;-58
2022/10/05 11:38:26;;;;;;;1.38;1.27;;;;;;;11.56;63.78;98776.94;4895891;29;20056;-60
2022/10/05 11:41:30;;;;;;;1.70;1.10;;;;;;;11.46;63.99;98766.25;4897750;29;20494;-56
2022/10/05 11:44:25;;;;;;;1.98;1.42;;;;;;;11.27;63.84;98772.00;4897895;29;20048;-60
2022/10/05 11:47:14;;;;;;;1.67;1.40;;;;;;;11.09;65.21;98767.13;4895709;29;20506;-59
2022/10/05 11:49:58;;;;;;;1.33;1.23;;;;;;;11.26;65.49;98780.22;4911738;29;20417;-59
2022/10/05 11:52:43;;;;;;;1.88;1.30;;;;;;;11.18;65.18;98784.16;4896927;29;20037;-58
2022/10/05 11:55:34;;;;;;;1.20;1.10;;;;;;;11.21;65.90;98796.13;4897788;29;20056;-60
2022/10/05 11:58:00;;;;;;;;;;;;;;;11.13;65.65;98792.88;4896033;29;20052;-57
2022/10/05 12:00:41;;;;;;;1.92;1.75;;;;;;;11.07;67.50;98799.19;4895750;29;19975;-59
2022/10/05 12:03:26;;;;;;;1.40;1.30;;;;;;;10.90;66.95;98801.97;4910698;29;20507;-57
2022/10/05 12:06:28;;;;;;;1.52;1.02;;;;;;;10.91;68.13;98802.78;4897445;29;20088;-59
2022/10/05 12:09:15;;;;;;;1.85;1.10;;;;;;;11.02;66.94;98791.19;4895486;29;20130;-60
2022/10/05 12:11:57;;;;;;;1.17;1.08;;;;;;;11.17;67.11;98787.84;4895885;29;20498;-59
2022/10/05 12:14:36;;;;;;;3.28;1.63;;;;;;;11.29;67.88;98803.56;4896213;29;20062;-58
2022/10/05 12:17:35;;;;;;;2.60;1.60;;;;;;;11.11;65.97;98802.94;4910931;29;20143;-60
2022/10/05 12:20:49;;;;;;;1.20;1.10;;;;;;;10.93;66.29;98800.69;4910829;29;20079;-62
2022/10/05 12:23:15;;;;;;;1.77;1.50;;;;;;;10.68;67.91;98803.94;4874068;29;20254;-59
2022/10/05 12:25:53;;;;;;;1.30;1.20;;;;;;;10.64;67.33;98808.91;4895638;29;20049;-58
2022/10/05 12:28:29;;;;;;;1.55;1.33;;;;;;;10.54;68.30;98808.84;4896348;29;20088;-59
2022/10/05 12:30:57;;;;;;;1.17;1.10;;;;;;;10.41;68.91;98817.19;4895012;29;20495;-59
2022/10/05 12:33:27;;;;;;;2.72;1.73;;;;;;;10.35;68.45;98820.81;4896012;29;20056;-61
2022/10/05 12:36:21;;;;;;;1.77;1.40;;;;;;;10.32;68.63;98823.97;4897308;29;20512;-58
2022/10/05 12:38:50;;;;;;;1.98;1.45;;;;;;;10.35;69.64;98824.31;4895723;29;20057;-60
2022/10/05 12:41:16;;;;;;;1.30;1.20;;;;;;;10.39;69.90;98825.38;4895697;29;20060;-61
2022/10/05 12:44:05;;;;;;;1.52;1.30;;;;;;;10.34;71.86;98827.97;4894658;29;20088;-58
2022/10/05 12:46:40;;;;;;;8.23;2.38;;;;;;;10.22;72.49;98836.03;4893780;29;20048;-59
2022/10/05 12:49:25;;;;;;;1.48;1.20;;;;;;;10.11;73.18;98834.31;4862474;29;20056;-60
2022/10/05 12:51:56;;;;;;;1.00;1.00;;;;;;;10.09;72.24;98831.13;4894420;29;20143;-58